^^
Station Historical Data
Daily Summary for July 8, 2017 Units:  English    Metric   Both
« Previous Day
Next Day »
Daily Weekly Monthly Yearly Custom
  High: Low: Average:
Temperature: 83.5 °F 66.8 °F 73.6 °F
Dew Point: 71.4 °F 62.9 °F 66.9 °F
Humidity: 97% 59% 81%
Wind Speed: 7.0mph 0.0mph 1.6mph
Wind Gust: 20.0mph - -
Wind- - SSW
Pressure: 29.87 in 29.72 in -
Precipitation: 0.01 in    
Historical Graphs
 
 
Tabular Data for July 8, 2017
Time Temperature Dew Point Pressure Wind Wind Speed Wind Gust Humidity Rainfall Rate (Hourly) Conditions
00:00 67.8 °F 66.0 °F 29.76 in South 3.0 mph 6.0 mph 94% 0.03 in -RA
00:15 67.4 °F 65.6 °F 29.76 in SSE 2.0 mph 6.0 mph 94% 0.00 in -RA
00:30 67.4 °F 65.9 °F 29.75 in ESE 1.0 mph 3.0 mph 95% 0.00 in -RA
00:45 67.2 °F 65.7 °F 29.75 in Calm   2.0 mph 95% 0.00 in -RA
01:00 66.9 °F 65.4 °F 29.74 in Calm   1.0 mph 95% 0.00 in -RA
01:15 66.8 °F 65.3 °F 29.74 in Calm     95% 0.00 in OVC
01:30 66.8 °F 65.6 °F 29.74 in Calm   1.0 mph 96% 0.00 in OVC
01:45 66.9 °F 65.7 °F 29.74 in Calm   1.0 mph 96% 0.00 in OVC
02:00 66.8 °F 65.6 °F 29.75 in Calm   1.0 mph 96% 0.00 in OVC
02:15 67.0 °F 65.8 °F 29.75 in SSW 1.0 mph 4.0 mph 96% 0.00 in SCT
02:30 67.1 °F 65.9 °F 29.74 in Calm   3.0 mph 96% 0.00 in SCT
02:45 67.1 °F 65.9 °F 29.74 in SSW 1.0 mph 4.0 mph 96% 0.00 in SCT
03:00 67.1 °F 65.9 °F 29.74 in SW 3.0 mph 6.0 mph 96% 0.00 in SCT
03:15 67.2 °F 66.0 °F 29.74 in SW 1.0 mph 7.0 mph 96% 0.01 in FEW
03:30 67.3 °F 66.1 °F 29.74 in SSW 1.0 mph 6.0 mph 96% 0.00 in FEW
03:45 67.5 °F 66.3 °F 29.74 in South 1.0 mph 5.0 mph 96% 0.00 in FEW
04:00 67.3 °F 66.1 °F 29.74 in Calm   5.0 mph 96% 0.00 in FEW
04:15 67.5 °F 66.6 °F 29.74 in Calm   2.0 mph 97% 0.00 in CLR
04:30 67.5 °F 66.6 °F 29.74 in Calm   1.0 mph 97% 0.00 in CLR
04:45 67.5 °F 66.6 °F 29.74 in Calm   2.0 mph 97% 0.00 in CLR
05:00 67.5 °F 66.6 °F 29.75 in Calm   2.0 mph 97% 0.00 in CLR
05:15 67.6 °F 66.7 °F 29.75 in SW 1.0 mph 3.0 mph 97% 0.00 in CLR
05:30 67.8 °F 66.9 °F 29.74 in SW 1.0 mph 6.0 mph 97% 0.00 in CLR
05:45 67.8 °F 66.9 °F 29.75 in Calm   4.0 mph 97% 0.00 in CLR
06:00 67.8 °F 66.9 °F 29.75 in SSW 1.0 mph 4.0 mph 97% 0.00 in CLR
06:15 68.0 °F 67.1 °F 29.75 in SW 1.0 mph 5.0 mph 97% 0.00 in CLR
06:30 68.2 °F 67.0 °F 29.75 in SW 2.0 mph 6.0 mph 96% 0.00 in CLR
06:45 68.3 °F 67.1 °F 29.74 in Calm   8.0 mph 96% 0.00 in CLR
07:00 68.5 °F 67.3 °F 29.75 in SSW 1.0 mph 5.0 mph 96% 0.00 in CLR
07:15 68.5 °F 67.3 °F 29.75 in Calm   3.0 mph 96% 0.00 in CLR
07:30 68.8 °F 67.6 °F 29.75 in Calm   3.0 mph 96% 0.00 in CLR
07:45 69.2 °F 68.0 °F 29.75 in Calm   3.0 mph 96% 0.00 in CLR
08:00 69.5 °F 68.0 °F 29.76 in SSW 2.0 mph 5.0 mph 95% 0.00 in CLR
08:15 69.7 °F 68.2 °F 29.77 in SSW 1.0 mph 6.0 mph 95% 0.00 in BKN
08:30 69.8 °F 68.0 °F 29.76 in Calm   6.0 mph 94% 0.00 in BKN
08:45 70.1 °F 68.3 °F 29.76 in Calm   4.0 mph 94% 0.00 in BKN
09:00 70.5 °F 68.7 °F 29.76 in Calm   1.0 mph 94% 0.00 in BKN
09:15 70.9 °F 68.8 °F 29.77 in Calm   2.0 mph 93% 0.00 in BKN
09:30 71.6 °F 69.2 °F 29.77 in Calm   2.0 mph 92% 0.00 in BKN
09:45 73.0 °F 69.9 °F 29.77 in SSW 3.0 mph 6.0 mph 90% 0.00 in BKN
10:00 74.5 °F 70.4 °F 29.77 in SSW 2.0 mph 7.0 mph 87% 0.00 in BKN
10:15 74.8 °F 70.0 °F 29.77 in South 1.0 mph 8.0 mph 85% 0.00 in FEW
10:30 75.0 °F 70.5 °F 29.77 in SW 2.0 mph 6.0 mph 86% 0.00 in FEW
10:45 76.2 °F 70.6 °F 29.77 in South 1.0 mph 7.0 mph 83% 0.00 in FEW
11:00 76.7 °F 71.1 °F 29.77 in SSW 3.0 mph 12.0 mph 83% 0.00 in FEW
11:15 77.3 °F 71.1 °F 29.77 in SSW 3.0 mph 9.0 mph 81% 0.00 in SCT
11:30 78.5 °F 71.4 °F 29.76 in SW 2.0 mph 10.0 mph 79% 0.00 in SCT
11:45 80.0 °F 70.9 °F 29.76 in SSW 3.0 mph 9.0 mph 74% 0.00 in SCT
12:00 79.9 °F 70.1 °F 29.76 in SW 2.0 mph 9.0 mph 72% 0.00 in SCT
12:15 80.4 °F 69.3 °F 29.75 in SSW 6.0 mph 12.0 mph 69% 0.00 in SCT
12:30 80.6 °F 69.5 °F 29.75 in SW 3.0 mph 12.0 mph 69% 0.00 in SCT
12:45 80.6 °F 69.1 °F 29.75 in SW 5.0 mph 12.0 mph 68% 0.00 in SCT
13:00 81.0 °F 68.5 °F 29.75 in SSW 5.0 mph 10.0 mph 66% 0.00 in SCT
13:30 81.9 °F 69.0 °F 29.74 in WSW 1.0 mph 13.0 mph 65% 0.00 in FEW
13:45 81.4 °F 69.4 °F 29.74 in SSW 3.0 mph 15.0 mph 67% 0.00 in FEW
14:00 81.8 °F 68.4 °F 29.74 in SW 7.0 mph 17.0 mph 64% 0.00 in FEW
14:15 82.1 °F 68.7 °F 29.73 in SSW 5.0 mph 13.0 mph 64% 0.00 in SCT
14:30 82.5 °F 69.1 °F 29.73 in SW 5.0 mph 14.0 mph 64% 0.00 in SCT
14:45 82.9 °F 69.0 °F 29.73 in South 3.0 mph 12.0 mph 63% 0.00 in SCT
15:00 83.1 °F 69.7 °F 29.73 in SW 5.0 mph 12.0 mph 64% 0.00 in SCT
15:15 82.8 °F 68.4 °F 29.73 in SSW 5.0 mph 13.0 mph 62% 0.00 in SCT
15:30 83.1 °F 67.8 °F 29.73 in WSW 5.0 mph 15.0 mph 60% 0.00 in SCT
15:45 82.3 °F 68.0 °F 29.73 in WSW 2.0 mph 15.0 mph 62% 0.00 in SCT
16:00 82.4 °F 68.1 °F 29.72 in SW 2.0 mph 12.0 mph 62% 0.00 in SCT
16:15 82.9 °F 68.1 °F 29.73 in SW 3.0 mph 10.0 mph 61% 0.00 in FEW
16:30 83.5 °F 68.1 °F 29.73 in SSW 2.0 mph 12.0 mph 60% 0.00 in FEW
16:45 83.2 °F 67.8 °F 29.73 in SW 3.0 mph 13.0 mph 60% 0.00 in FEW
17:00 82.1 °F 67.4 °F 29.73 in SW 5.0 mph 12.0 mph 61% 0.00 in FEW
17:15 82.1 °F 67.8 °F 29.74 in SSW 3.0 mph 12.0 mph 62% 0.00 in FEW
17:30 82.4 °F 67.1 °F 29.73 in SW 6.0 mph 20.0 mph 60% 0.00 in FEW
17:45 81.4 °F 66.7 °F 29.74 in SW 3.0 mph 18.0 mph 61% 0.00 in FEW
18:00 81.1 °F 65.4 °F 29.75 in SSW 5.0 mph 13.0 mph 59% 0.00 in FEW
18:15 80.7 °F 66.0 °F 29.75 in SSW 3.0 mph 12.0 mph 61% 0.00 in FEW
18:30 78.9 °F 64.7 °F 29.77 in SW 5.0 mph 12.0 mph 62% 0.00 in FEW
18:45 76.8 °F 64.2 °F 29.77 in ESE 3.0 mph 10.0 mph 65% 0.00 in FEW
19:00 75.0 °F 64.2 °F 29.78 in Calm   7.0 mph 69% 0.00 in FEW
19:15 74.5 °F 63.7 °F 29.79 in Calm   4.0 mph 69% 0.00 in BKN
19:30 73.9 °F 64.3 °F 29.79 in Calm   2.0 mph 72% 0.00 in BKN
19:45 74.2 °F 64.6 °F 29.80 in Calm   3.0 mph 72% 0.00 in BKN
20:00 75.5 °F 65.0 °F 29.80 in Calm   2.0 mph 70% 0.00 in BKN
20:15 74.2 °F 64.6 °F 29.80 in Calm   4.0 mph 72% 0.00 in SCT
20:30 73.7 °F 64.9 °F 29.80 in Calm   2.0 mph 74% 0.00 in SCT
20:45 73.4 °F 63.8 °F 29.80 in Calm   2.0 mph 72% 0.00 in SCT
21:00 73.4 °F 63.8 °F 29.81 in Calm   3.0 mph 72% 0.00 in SCT
21:15 73.1 °F 63.9 °F 29.82 in Calm   4.0 mph 73% 0.00 in SCT
21:30 72.8 °F 64.0 °F 29.83 in NNW 1.0 mph 4.0 mph 74% 0.00 in SCT
21:45 72.2 °F 63.8 °F 29.83 in Calm   3.0 mph 75% 0.00 in SCT
22:00 71.8 °F 63.4 °F 29.85 in Calm   2.0 mph 75% 0.00 in SCT
22:15 71.3 °F 63.3 °F 29.85 in Calm   1.0 mph 76% 0.00 in SCT
22:30 71.0 °F 63.4 °F 29.86 in Calm   1.0 mph 77% 0.00 in SCT
22:45 70.6 °F 63.4 °F 29.86 in Calm   1.0 mph 78% 0.00 in SCT
23:00 70.6 °F 63.4 °F 29.86 in Calm   3.0 mph 78% 0.00 in SCT
23:15 70.3 °F 63.5 °F 29.87 in Calm   1.0 mph 79% 0.00 in SCT
23:30 70.3 °F 63.4 °F 29.87 in Calm   1.0 mph 79% 0.00 in SCT
23:45 70.4 °F 62.9 °F 29.87 in NNE 1.0 mph 4.0 mph 77% 0.00 in SCT
TarryTown NY Weather
Compliments of Weather Underground - 1.5 mb